Time;durP1;ratioP1;P1;durP2;ratioP2;P2;SDS_P1;SDS_P2;PMS_P1;PMS_P2;Temp;Humidity;BMP_temperature;BMP_pressure;BME280_temperature;BME280_humidity;BME280_pressure;Samples;Min_cycle;Max_cycle;Signal;HPM_P1;HPM_P2
2022/01/28 00:02:15;;;;;;;8.30;1.20;;;15.30;49.60;14.30;102128.00;;;;5051321;28;20044;-70
2022/01/28 00:05:01;;;;;;;5.70;1.30;;;15.30;49.60;14.30;102132.00;;;;5062892;28;20048;-70
2022/01/28 00:07:47;;;;;;;4.43;1.38;;;15.30;49.60;14.30;102131.00;;;;5067352;28;20395;-70
2022/01/28 00:10:34;;;;;;;10.88;2.20;;;15.00;49.40;14.30;102142.00;;;;5048866;28;20216;-70
2022/01/28 00:13:28;;;;;;;4.55;1.30;;;15.20;49.50;14.30;102143.00;;;;5063254;28;20052;-70
2022/01/28 00:16:44;;;;;;;3.22;1.33;;;15.20;49.50;14.30;102133.00;;;;5062348;28;20067;-70
2022/01/28 00:20:27;;;;;;;3.65;0.80;;;15.20;49.50;14.30;102155.00;;;;5063765;28;20036;-70
2022/01/28 00:38:32;;;;;;;5.88;0.95;;;15.20;49.40;14.30;102178.00;;;;5051122;28;20169;-70
2022/01/28 00:41:18;;;;;;;6.05;1.27;;;15.20;49.40;14.30;102175.00;;;;5065745;28;20037;-70
2022/01/28 00:44:04;;;;;;;4.78;1.00;;;15.20;49.40;14.30;102166.00;;;;5064229;28;20048;-70
2022/01/28 00:46:50;;;;;;;4.40;1.48;;;15.20;49.00;14.30;102173.00;;;;5064726;28;20048;-70
2022/01/28 00:49:36;;;;;;;5.13;1.42;;;15.20;49.10;14.20;102169.00;;;;5034729;28;20040;-70
2022/01/28 00:52:22;;;;;;;5.82;1.45;;;15.20;49.00;14.30;102186.00;;;;5063722;28;20032;-70
2022/01/28 00:55:08;;;;;;;3.90;0.85;;;15.10;49.20;14.20;102195.00;;;;5064672;28;20039;-70
2022/01/28 00:57:55;;;;;;;4.38;0.80;;;15.20;49.10;14.20;102183.00;;;;5060938;28;20041;-70
2022/01/28 01:00:41;;;;;;;4.93;1.25;;;15.20;49.20;14.20;102192.00;;;;5063153;28;20444;-70
2022/01/28 01:03:27;;;;;;;4.47;1.10;;;15.10;49.00;14.20;102202.00;;;;5063794;28;20046;-70
2022/01/28 01:06:13;;;;;;;8.98;1.10;;;15.20;49.20;14.20;102209.00;;;;5057596;28;20037;-70
2022/01/28 01:08:59;;;;;;;5.20;1.48;;;15.10;49.20;14.20;102223.00;;;;5063623;28;20033;-70
2022/01/28 01:11:45;;;;;;;5.35;1.17;;;15.10;49.20;14.20;102223.00;;;;5060627;28;20049;-70
2022/01/28 01:14:32;;;;;;;5.43;1.30;;;15.10;49.20;14.20;102227.00;;;;5063590;28;20762;-70
2022/01/28 01:17:38;;;;;;;6.30;1.05;;;15.10;49.20;14.20;102238.00;;;;5068619;28;20036;-70
2022/01/28 01:23:21;;;;;;;4.65;1.30;;;15.10;49.30;14.20;102248.00;;;;5066429;28;20048;-70
2022/01/28 01:26:12;;;;;;;5.63;1.00;;;15.10;49.30;14.20;102246.00;;;;5056700;28;20098;-70
2022/01/28 01:28:58;;;;;;;4.53;0.85;;;15.10;49.20;14.20;102239.00;;;;5070140;28;20383;-70
2022/01/28 01:31:45;;;;;;;7.22;1.23;;;15.10;49.20;14.20;102245.00;;;;5065637;28;20048;-70
2022/01/28 01:34:31;;;;;;;4.95;1.20;;;15.10;49.20;14.20;102249.00;;;;5072947;28;20044;-70
2022/01/28 01:37:20;;;;;;;5.68;1.20;;;15.10;49.30;14.20;102248.00;;;;5064812;28;20067;-70
2022/01/28 01:40:06;;;;;;;3.35;1.05;;;15.10;49.30;14.20;102247.00;;;;5074407;28;20040;-71
2022/01/28 01:43:06;;;;;;;4.70;0.90;;;15.10;49.20;14.20;102259.00;;;;5058530;28;20049;-70
2022/01/28 01:52:05;;;;;;;5.35;1.15;;;15.10;49.20;14.20;102264.00;;;;5054555;28;20040;-70
2022/01/28 01:54:52;;;;;;;6.95;1.33;;;15.10;49.20;14.20;102267.00;;;;5044421;28;20037;-70
2022/01/28 01:57:38;;;;;;;5.25;1.10;;;15.10;49.20;14.20;102270.00;;;;5054911;28;20041;-70
2022/01/28 02:00:25;;;;;;;5.57;1.02;;;15.10;49.20;14.20;102269.00;;;;5069868;28;20036;-70
2022/01/28 02:03:11;;;;;;;5.07;1.10;;;15.10;49.20;14.20;102274.00;;;;5066597;28;20036;-70
2022/01/28 02:05:58;;;;;;;7.78;1.30;;;15.10;49.20;14.20;102277.00;;;;5064413;28;20493;-70
2022/01/28 02:08:44;;;;;;;7.70;1.27;;;15.10;49.20;14.20;102276.00;;;;5059563;28;20053;-70
2022/01/28 02:11:30;;;;;;;2.65;0.50;;;15.10;49.10;14.20;102292.00;;;;5057091;28;20040;-70
2022/01/28 02:14:16;;;;;;;5.55;1.00;;;15.10;49.10;14.20;102285.00;;;;5058379;28;20501;-70
2022/01/28 02:17:03;;;;;;;3.58;1.05;;;15.20;49.10;14.20;102288.00;;;;5068944;28;20025;-70
2022/01/28 02:19:49;;;;;;;4.50;1.10;;;15.20;49.10;14.20;102302.00;;;;5070319;28;20037;-70
2022/01/28 02:22:35;;;;;;;6.97;1.30;;;15.20;49.10;14.20;102313.00;;;;5067106;28;20517;-70
2022/01/28 02:25:22;;;;;;;2.88;1.13;;;15.20;49.10;14.20;102316.00;;;;5056394;28;20044;-70
2022/01/28 02:28:11;;;;;;;4.15;1.20;;;15.20;49.00;14.20;102317.00;;;;5066927;28;20036;-70
2022/01/28 02:30:57;;;;;;;6.00;1.23;;;15.20;49.00;14.20;102333.00;;;;5067116;28;20049;-70
2022/01/28 02:33:46;;;;;;;5.25;1.05;;;15.20;49.00;14.20;102325.00;;;;5063750;28;20048;-70
2022/01/28 02:36:33;;;;;;;4.32;1.33;;;15.20;49.00;14.20;102330.00;;;;5064960;28;20115;-70
2022/01/28 02:39:19;;;;;;;5.07;1.15;;;15.10;48.90;14.20;102331.00;;;;5061177;28;20033;-70
2022/01/28 02:42:26;;;;;;;5.22;0.90;;;15.20;49.00;14.20;102336.00;;;;5058234;28;20061;-70
2022/01/28 02:45:21;;;;;;;6.53;1.05;;;15.20;49.00;14.20;102342.00;;;;5062318;28;20504;-70
2022/01/28 02:48:14;;;;;;;3.33;0.70;;;15.20;49.00;14.20;102344.00;;;;5065376;28;20102;-70
2022/01/28 02:51:10;;;;;;;4.13;0.98;;;15.20;49.00;14.20;102356.00;;;;5062110;28;20032;-70
2022/01/28 02:53:59;;;;;;;3.70;0.90;;;15.10;48.90;14.20;102359.00;;;;5054722;28;20451;-70
2022/01/28 02:56:55;;;;;;;6.13;1.15;;;15.20;48.90;14.20;102367.00;;;;5060284;28;20093;-70
2022/01/28 02:59:41;;;;;;;3.95;1.27;;;15.10;48.90;14.20;102378.00;;;;5068196;28;20123;-70
2022/01/28 03:02:27;;;;;;;4.75;1.10;;;15.20;48.90;14.20;102377.00;;;;5062659;28;20625;-70
2022/01/28 03:05:31;;;;;;;5.13;0.88;;;15.10;48.90;14.20;102370.00;;;;5068102;28;20055;-70
2022/01/28 03:08:18;;;;;;;5.93;1.27;;;15.20;48.90;14.20;102372.00;;;;5064195;28;20037;-70
2022/01/28 03:14:17;;;;;;;4.72;1.05;;;15.20;49.00;14.20;102385.00;;;;5063699;28;20094;-70
2022/01/28 03:19:54;;;;;;;4.63;1.25;;;15.10;48.80;14.20;102390.00;;;;5064205;28;20044;-70
2022/01/28 03:22:40;;;;;;;6.80;1.40;;;15.10;48.80;14.20;102389.00;;;;5063270;28;20132;-70
2022/01/28 03:25:26;;;;;;;5.55;1.20;;;15.10;48.80;14.20;102391.00;;;;5060614;28;20066;-70
2022/01/28 03:28:13;;;;;;;4.82;0.93;;;15.10;48.80;14.20;102391.00;;;;5062697;28;20036;-70
2022/01/28 03:30:59;;;;;;;6.00;1.33;;;15.10;48.80;14.20;102389.00;;;;5066851;28;20414;-70
2022/01/28 03:33:45;;;;;;;7.20;1.27;;;15.10;48.80;14.20;102384.00;;;;5063165;28;20045;-70
2022/01/28 03:36:32;;;;;;;6.40;1.10;;;15.10;48.80;14.20;102401.00;;;;5063132;28;20435;-70
2022/01/28 03:39:18;;;;;;;7.13;1.70;;;15.10;48.80;14.20;102390.00;;;;5065387;28;20040;-71
2022/01/28 03:42:05;;;;;;;8.30;1.98;;;15.10;48.80;14.20;102404.00;;;;5058358;28;20032;-70
2022/01/28 03:44:51;;;;;;;5.23;1.20;;;15.10;48.80;14.20;102398.00;;;;5044643;28;20490;-70
2022/01/28 03:47:37;;;;;;;5.43;1.35;;;15.10;48.80;14.20;102389.00;;;;5064549;28;20036;-70
2022/01/28 03:50:23;;;;;;;6.05;1.10;;;15.10;48.80;14.20;102406.00;;;;5063977;28;20110;-70
2022/01/28 03:53:09;;;;;;;3.17;0.75;;;15.10;48.80;14.20;102415.00;;;;5061704;28;20047;-70
2022/01/28 03:55:57;;;;;;;5.05;1.30;;;15.10;48.90;14.20;102425.00;;;;5062937;28;20033;-70
2022/01/28 03:58:44;;;;;;;6.40;1.50;;;15.10;48.90;14.20;102433.00;;;;5064931;28;20060;-70
2022/01/28 04:01:35;;;;;;;4.85;1.02;;;15.10;49.60;14.20;102437.00;;;;5070001;28;20040;-70
2022/01/28 04:13:25;;;;;;;5.28;1.40;;;15.20;49.00;14.20;102450.00;;;;5061304;28;20068;-70
2022/01/28 04:19:08;;;;;;;5.03;1.38;;;15.20;49.20;14.20;102455.00;;;;5060754;28;20037;-70
2022/01/28 04:21:54;;;;;;;2.78;0.93;;;15.10;49.00;14.20;102455.00;;;;5051790;28;20036;-70
2022/01/28 04:24:40;;;;;;;5.75;1.38;;;15.20;49.00;14.20;102471.00;;;;5064946;28;20375;-70
2022/01/28 04:27:26;;;;;;;6.47;1.40;;;15.20;49.00;14.20;102466.00;;;;5064450;28;20043;-70
2022/01/28 04:30:12;;;;;;;6.25;1.23;;;15.20;49.00;14.30;102469.00;;;;5062946;28;20041;-70
2022/01/28 04:32:58;;;;;;;6.80;1.45;;;15.20;48.80;14.30;102482.00;;;;5061548;28;20470;-70
2022/01/28 04:35:47;;;;;;;8.35;1.33;;;15.20;48.80;14.30;102482.00;;;;5051994;28;20417;-70
2022/01/28 04:38:45;;;;;;;8.15;1.50;;;15.20;48.60;14.30;102477.00;;;;5061267;28;20651;-70
2022/01/28 04:42:14;;;;;;;5.07;1.02;;;15.20;48.70;14.30;102486.00;;;;5063645;28;20051;-70
2022/01/28 04:50:42;;;;;;;4.45;1.00;;;15.30;48.80;14.40;102491.00;;;;5064063;28;20040;-70
2022/01/28 04:53:43;;;;;;;8.48;1.35;;;15.30;48.70;14.40;102499.00;;;;5047227;28;20041;-70
2022/01/28 05:05:39;;;;;;;7.07;1.40;;;15.40;48.60;14.40;102500.00;;;;5064260;28;20054;-70
2022/01/28 05:29:07;;;;;;;7.93;1.65;;;15.50;48.40;14.50;102509.00;;;;5057881;28;20055;-70
2022/01/28 05:31:53;;;;;;;5.85;1.70;;;15.50;48.40;14.50;102511.00;;;;5045361;28;20056;-70
2022/01/28 05:34:39;;;;;;;5.82;1.42;;;15.50;48.40;14.50;102513.00;;;;5061362;28;20430;-70
2022/01/28 05:37:25;;;;;;;6.45;1.25;;;15.50;48.40;14.50;102529.00;;;;5046895;28;20040;-70
2022/01/28 05:40:11;;;;;;;5.80;1.67;;;15.50;48.40;14.50;102534.00;;;;5057783;28;20033;-70
2022/01/28 05:42:58;;;;;;;5.60;1.50;;;15.50;48.30;14.50;102547.00;;;;5064407;28;20063;-70
2022/01/28 05:45:44;;;;;;;5.93;1.70;;;15.50;48.30;14.50;102557.00;;;;5066856;28;20052;-70
2022/01/28 05:48:30;;;;;;;5.32;1.30;;;15.50;48.30;14.50;102566.00;;;;5062350;28;20051;-70
2022/01/28 05:51:18;;;;;;;6.88;1.48;;;15.50;48.20;14.60;102568.00;;;;5064317;28;20060;-70
2022/01/28 05:54:04;;;;;;;;;;;15.50;48.20;14.50;102578.00;;;;5059651;28;20080;-70
2022/01/28 05:56:50;;;;;;;5.82;1.40;;;15.60;48.40;14.50;102575.00;;;;5064600;28;20285;-70
2022/01/28 05:59:36;;;;;;;6.78;1.58;;;15.60;48.20;14.50;102568.00;;;;5061747;28;20040;-70
2022/01/28 06:02:22;;;;;;;6.65;1.80;;;15.60;48.20;14.50;102565.00;;;;5065231;28;20517;-70
2022/01/28 06:05:08;;;;;;;5.07;1.35;;;15.60;48.20;14.50;102564.00;;;;5045366;28;20049;-70
2022/01/28 06:07:55;;;;;;;6.05;1.50;;;15.50;48.20;14.50;102571.00;;;;5065902;28;20055;-70
2022/01/28 06:10:41;;;;;;;6.22;1.45;;;15.60;48.20;14.50;102565.00;;;;5064632;28;20131;-70
2022/01/28 06:13:27;;;;;;;5.10;1.40;;;15.50;48.20;14.50;102573.00;;;;5067027;28;20041;-70
2022/01/28 06:16:14;;;;;;;8.60;1.90;;;15.50;48.30;14.50;102570.00;;;;5063864;28;20282;-70
2022/01/28 06:19:01;;;;;;;7.07;1.60;;;15.50;48.20;14.50;102574.00;;;;5049718;28;20466;-70
2022/01/28 06:21:47;;;;;;;10.02;1.77;;;15.50;48.20;14.50;102591.00;;;;5065590;28;20032;-70
2022/01/28 06:24:33;;;;;;;8.57;1.95;;;15.50;48.20;14.50;102596.00;;;;5067298;28;20615;-70
2022/01/28 06:27:19;;;;;;;7.75;1.60;;;15.50;48.10;14.50;102597.00;;;;5067978;28;20040;-70
2022/01/28 06:30:06;;;;;;;7.35;1.48;;;15.50;48.20;14.50;102606.00;;;;5058857;28;20045;-70
2022/01/28 06:32:53;;;;;;;9.23;1.52;;;15.50;48.20;14.50;102604.00;;;;5071227;28;20481;-70
2022/01/28 06:35:40;;;;;;;6.50;1.70;;;15.50;48.30;14.50;102610.00;;;;5059434;28;20041;-70
2022/01/28 06:38:26;;;;;;;8.02;1.50;;;15.50;48.20;14.50;102619.00;;;;5069455;28;20048;-70
2022/01/28 06:41:12;;;;;;;6.60;1.52;;;15.50;48.40;14.50;102623.00;;;;5057716;28;20068;-70
2022/01/28 06:43:59;;;;;;;6.60;1.63;;;15.50;48.10;14.50;102623.00;;;;5061988;28;20462;-70
2022/01/28 06:46:45;;;;;;;4.85;1.30;;;15.50;48.20;14.50;102630.00;;;;5065762;28;20045;-70
2022/01/28 06:49:31;;;;;;;7.28;1.98;;;15.50;48.20;14.50;102649.00;;;;5067323;28;20397;-70
2022/01/28 06:52:17;;;;;;;10.18;2.22;;;15.40;48.10;14.50;102654.00;;;;5061887;28;20094;-70
2022/01/28 06:55:05;;;;;;;6.93;1.98;;;15.50;48.20;14.50;102661.00;;;;5059536;28;20241;-70
2022/01/28 06:57:53;;;;;;;8.68;1.50;;;15.50;48.20;14.50;102664.00;;;;5048808;28;20466;-69
2022/01/28 07:00:40;;;;;;;;;;;15.50;48.20;14.40;102653.00;;;;5061678;28;20336;-70
2022/01/28 07:03:27;;;;;;;8.35;1.90;;;15.50;48.30;14.40;102658.00;;;;5067082;28;20414;-70
2022/01/28 07:06:14;;;;;;;6.05;1.50;;;15.40;48.10;14.40;102663.00;;;;5057890;28;20605;-70
2022/01/28 07:09:00;;;;;;;7.05;1.75;;;15.40;47.70;14.40;102666.00;;;;5062628;28;20321;-70
2022/01/28 07:11:46;;;;;;;11.02;2.20;;;15.40;47.90;14.40;102676.00;;;;5047686;28;20041;-70
2022/01/28 07:14:32;;;;;;;7.70;1.73;;;15.40;47.80;14.40;102682.00;;;;5047243;28;20482;-70
2022/01/28 07:17:18;;;;;;;9.75;1.65;;;15.40;48.00;14.40;102687.00;;;;5062274;28;20220;-70
2022/01/28 07:20:05;;;;;;;8.00;1.98;;;15.40;47.90;14.40;102686.00;;;;5067401;28;20071;-70
2022/01/28 07:22:52;;;;;;;9.20;1.50;;;15.40;47.80;14.40;102686.00;;;;5058463;28;20391;-70
2022/01/28 07:25:38;;;;;;;9.18;1.77;;;15.40;48.00;14.40;102693.00;;;;5062659;28;20040;-70
2022/01/28 07:28:25;;;;;;;8.25;1.83;;;15.40;48.00;14.40;102689.00;;;;5049963;28;20037;-70
2022/01/28 07:31:14;;;;;;;5.93;1.70;;;15.30;47.90;14.40;102684.00;;;;5064738;28;20508;-70
2022/01/28 07:34:00;;;;;;;6.80;1.70;;;15.40;47.90;14.40;102683.00;;;;5059417;28;20138;-70
2022/01/28 07:36:46;;;;;;;8.85;1.73;;;15.30;47.90;14.40;102695.00;;;;5044714;28;20680;-70
2022/01/28 07:39:32;;;;;;;7.45;1.60;;;15.30;48.00;14.40;102706.00;;;;5048334;28;20307;-70
2022/01/28 07:42:18;;;;;;;7.93;1.60;;;15.30;47.80;14.40;102704.00;;;;5063039;28;20445;-70
2022/01/28 07:45:06;;;;;;;6.15;1.45;;;15.30;48.00;14.40;102717.00;;;;5063247;28;20435;-70
2022/01/28 07:47:52;;;;;;;8.18;1.55;;;15.30;48.10;14.40;102714.00;;;;5034106;28;20041;-70
2022/01/28 07:50:38;;;;;;;8.07;1.67;;;15.30;48.10;14.40;102720.00;;;;5064532;28;20048;-70
2022/01/28 07:53:25;;;;;;;5.80;1.80;;;15.30;48.10;14.40;102726.00;;;;5067903;28;20279;-70
2022/01/28 07:56:12;;;;;;;7.07;1.55;;;15.30;48.20;14.40;102733.00;;;;5051081;28;20123;-70
2022/01/28 07:58:58;;;;;;;10.23;1.80;;;15.30;48.20;14.40;102739.00;;;;5067174;28;20067;-70
2022/01/28 08:01:44;;;;;;;9.27;2.70;;;15.30;48.20;14.40;102736.00;;;;5044635;28;20083;-70
2022/01/28 08:04:30;;;;;;;6.07;1.70;;;15.30;48.20;14.40;102746.00;;;;5064206;28;20048;-70
2022/01/28 08:07:16;;;;;;;6.82;1.40;;;15.30;48.20;14.40;102744.00;;;;5062583;28;20037;-70
2022/01/28 08:10:03;;;;;;;7.10;1.75;;;15.40;48.20;14.40;102753.00;;;;5066560;28;20040;-70
2022/01/28 08:12:51;;;;;;;9.10;1.63;;;15.30;48.20;14.40;102750.00;;;;5061613;28;20520;-70
2022/01/28 08:15:39;;;;;;;9.15;2.10;;;15.40;48.20;14.40;102752.00;;;;5050308;28;20489;-70
2022/01/28 08:18:25;;;;;;;7.25;1.83;;;15.40;48.20;14.50;102764.00;;;;5067750;28;20189;-70
2022/01/28 08:21:11;;;;;;;8.48;2.15;;;15.40;48.20;14.50;102762.00;;;;5047514;28;20033;-70
2022/01/28 08:23:57;;;;;;;6.18;1.65;;;15.40;48.10;14.50;102766.00;;;;5064522;28;20554;-70
2022/01/28 08:26:43;;;;;;;7.60;1.73;;;15.40;48.10;14.50;102770.00;;;;5066391;28;20078;-70
2022/01/28 08:29:29;;;;;;;4.82;1.33;;;15.50;48.20;14.50;102772.00;;;;5064415;28;20032;-70
2022/01/28 08:32:15;;;;;;;7.93;2.13;;;15.50;48.10;14.50;102777.00;;;;5062111;28;20509;-70
2022/01/28 08:35:01;;;;;;;11.35;1.83;;;15.50;48.10;14.50;102788.00;;;;5064807;28;20036;-70
2022/01/28 08:37:49;;;;;;;7.57;1.95;;;15.40;47.90;14.50;102788.00;;;;5062619;28;20374;-70
2022/01/28 08:40:35;;;;;;;8.38;1.40;;;15.50;47.80;14.50;102794.00;;;;5064141;28;20639;-70
2022/01/28 08:43:21;;;;;;;10.55;1.90;;;15.50;47.90;14.50;102804.00;;;;5068391;28;20044;-70
2022/01/28 08:46:07;;;;;;;6.95;1.58;;;15.50;47.90;14.50;102793.00;;;;5060335;28;20522;-70
2022/01/28 08:48:53;;;;;;;7.40;1.80;;;15.50;47.80;14.40;102801.00;;;;5066716;28;20130;-70
2022/01/28 08:51:39;;;;;;;5.75;1.35;;;15.50;47.80;14.40;102809.00;;;;5066028;28;20071;-70
2022/01/28 08:54:25;;;;;;;8.32;1.80;;;15.40;47.80;14.40;102815.00;;;;5063558;28;20045;-70
2022/01/28 08:57:12;;;;;;;5.85;1.70;;;15.40;47.80;14.40;102823.00;;;;5063060;28;20040;-70
2022/01/28 08:59:58;;;;;;;11.77;1.83;;;15.40;47.80;14.40;102825.00;;;;5062838;28;20502;-70
2022/01/28 09:02:45;;;;;;;9.32;1.73;;;15.40;47.90;14.40;102832.00;;;;5058958;28;20041;-70
2022/01/28 09:05:33;;;;;;;7.07;1.65;;;15.40;47.90;14.40;102833.00;;;;5061538;28;20040;-70
2022/01/28 09:08:19;;;;;;;6.80;1.73;;;15.40;48.00;14.40;102836.00;;;;5065879;28;20374;-70
2022/01/28 09:14:09;;;;;;;11.18;1.83;;;15.40;48.00;14.40;102838.00;;;;5063642;28;20040;-70
2022/01/28 09:16:56;;;;;;;10.65;2.03;;;15.40;47.90;14.40;102837.00;;;;5062311;28;20110;-70
2022/01/28 09:19:44;;;;;;;8.80;1.88;;;15.40;48.00;14.40;102853.00;;;;5063826;28;20081;-70
2022/01/28 09:22:31;;;;;;;5.65;1.50;;;15.40;47.90;14.40;102843.00;;;;5064620;28;20052;-70
2022/01/28 09:25:20;;;;;;;9.20;2.00;;;15.40;47.80;14.40;102857.00;;;;5050204;28;20044;-70
2022/01/28 09:28:06;;;;;;;8.90;1.92;;;15.50;48.00;14.40;102850.00;;;;5064947;28;20094;-70
2022/01/28 09:30:52;;;;;;;8.95;2.25;;;15.40;47.60;14.40;102846.00;;;;5049385;28;20040;-70
2022/01/28 09:33:38;;;;;;;6.90;1.65;;;15.40;47.80;14.40;102860.00;;;;5068455;28;20052;-70
2022/01/28 09:36:24;;;;;;;9.52;1.80;;;15.40;47.80;14.40;102858.00;;;;5062651;28;20032;-70
2022/01/28 09:39:12;;;;;;;7.18;1.80;;;15.40;47.90;14.40;102853.00;;;;5068334;28;20037;-70
2022/01/28 09:42:02;;;;;;;8.02;1.63;;;15.40;47.90;14.40;102859.00;;;;5068895;28;20382;-70
2022/01/28 09:44:49;;;;;;;5.90;1.42;;;15.40;47.70;14.40;102865.00;;;;5055991;28;20435;-70
2022/01/28 09:47:35;;;;;;;6.40;1.42;;;15.40;47.80;14.40;102868.00;;;;5053966;28;20043;-70
2022/01/28 09:50:22;;;;;;;6.90;1.75;;;15.40;47.80;14.40;102875.00;;;;5070605;28;20044;-70
2022/01/28 09:53:08;;;;;;;8.33;1.80;;;15.40;47.80;14.40;102881.00;;;;5067463;28;20126;-70
2022/01/28 09:55:54;;;;;;;7.07;1.67;;;15.40;47.80;14.40;102883.00;;;;5050111;28;20028;-70
2022/01/28 09:58:41;;;;;;;6.40;1.40;;;15.40;47.80;14.40;102887.00;;;;5068892;28;20025;-70
2022/01/28 10:01:27;;;;;;;7.47;1.85;;;15.40;47.80;14.40;102887.00;;;;5063835;28;20099;-70
2022/01/28 10:04:15;;;;;;;5.97;1.48;;;15.40;47.90;14.50;102876.00;;;;5055601;28;20041;-70
2022/01/28 10:07:13;;;;;;;6.43;1.35;;;15.40;47.90;14.50;102877.00;;;;5067919;28;20044;-70
2022/01/28 10:10:01;;;;;;;7.78;2.47;;;15.40;47.80;14.50;102881.00;;;;5064602;28;20036;-70
2022/01/28 10:12:51;;;;;;;9.18;1.50;;;15.40;47.80;14.50;102899.00;;;;5063577;28;20087;-70
2022/01/28 10:15:51;;;;;;;7.85;1.50;;;15.40;47.80;14.50;102899.00;;;;5065357;28;20047;-70
2022/01/28 10:18:45;;;;;;;7.07;2.33;;;15.40;47.80;14.50;102889.00;;;;5058516;28;20039;-70
2022/01/28 10:21:43;;;;;;;10.88;2.17;;;15.50;47.70;14.40;102897.00;;;;5046355;28;20046;-70
2022/01/28 10:24:29;;;;;;;8.05;1.95;;;15.50;47.70;14.50;102891.00;;;;5051523;28;20043;-70
2022/01/28 10:27:17;;;;;;;9.10;1.35;;;15.40;47.60;14.50;102898.00;;;;5069797;28;20068;-70
2022/01/28 10:30:06;;;;;;;6.45;1.55;;;15.50;47.80;14.50;102897.00;;;;5064200;28;20051;-70
2022/01/28 10:33:20;;;;;;;8.95;1.60;;;15.50;47.70;14.50;102905.00;;;;5065332;28;20044;-70
2022/01/28 10:36:07;;;;;;;7.18;2.03;;;15.50;47.70;14.40;102907.00;;;;5063937;28;20119;-70
2022/01/28 10:38:56;;;;;;;4.65;1.52;;;15.50;47.70;14.40;102898.00;;;;5066509;28;20110;-70
2022/01/28 10:41:53;;;;;;;7.57;1.77;;;15.50;47.70;14.50;102905.00;;;;5038185;28;20123;-70
2022/01/28 10:44:57;;;;;;;9.02;1.60;;;15.50;47.70;14.40;102898.00;;;;5073473;28;20445;-70
2022/01/28 10:47:45;;;;;;;8.38;1.80;;;15.50;47.70;14.50;102896.00;;;;5051585;28;20033;-70
2022/01/28 10:50:34;;;;;;;6.50;1.60;;;15.50;47.70;14.50;102898.00;;;;5062605;28;20036;-70
2022/01/28 10:53:21;;;;;;;7.50;1.60;;;15.50;47.70;14.50;102904.00;;;;5055222;28;20375;-70
2022/01/28 10:56:11;;;;;;;6.13;1.77;;;15.50;47.60;14.50;102901.00;;;;5064469;28;20051;-70
2022/01/28 10:58:57;;;;;;;7.68;1.77;;;15.50;47.70;14.50;102907.00;;;;5053998;28;20036;-70
2022/01/28 11:01:44;;;;;;;7.68;1.95;;;15.50;47.70;14.50;102915.00;;;;5051356;28;20051;-70
2022/01/28 11:04:30;;;;;;;8.55;1.70;;;15.50;47.70;14.50;102918.00;;;;5037971;28;20200;-70
2022/01/28 11:07:16;;;;;;;6.47;2.00;;;15.50;47.70;14.50;102916.00;;;;5049407;28;20040;-70
2022/01/28 11:10:02;;;;;;;5.70;1.65;;;15.50;47.70;14.50;102917.00;;;;5052374;28;20055;-70
2022/01/28 11:12:50;;;;;;;6.03;1.52;;;15.50;47.70;14.50;102918.00;;;;5051530;28;20544;-70
2022/01/28 11:15:36;;;;;;;8.35;1.95;;;15.50;47.70;14.50;102904.00;;;;5049557;28;20393;-70
2022/01/28 11:18:26;;;;;;;7.25;1.67;;;15.50;47.70;14.50;102902.00;;;;5053363;28;20116;-70
2022/01/28 11:21:15;;;;;;;5.85;2.25;;;15.50;47.70;14.50;102904.00;;;;5049212;28;20036;-70
2022/01/28 11:24:39;;;;;;;10.30;1.48;;;15.60;47.70;14.50;102909.00;;;;5032991;28;20486;-70
2022/01/28 11:27:35;;;;;;;7.68;1.73;;;15.50;47.70;14.50;102905.00;;;;5065833;28;20087;-70
2022/01/28 11:30:28;;;;;;;7.22;1.40;;;15.60;47.70;14.50;102919.00;;;;5024415;28;20111;-70
2022/01/28 11:33:15;;;;;;;9.10;2.10;;;15.50;47.60;14.50;102912.00;;;;5059924;28;20448;-70
2022/01/28 11:36:03;;;;;;;7.35;1.85;;;15.60;47.70;14.50;102910.00;;;;5056197;28;20086;-70
2022/01/28 11:38:49;;;;;;;7.43;2.17;;;15.50;47.60;14.50;102906.00;;;;5069884;28;20119;-70
2022/01/28 11:41:35;;;;;;;8.65;1.77;;;15.60;47.70;14.50;102901.00;;;;5048416;28;20032;-70
2022/01/28 11:44:49;;;;;;;7.75;2.00;;;15.60;47.70;14.50;102898.00;;;;5051552;28;20071;-70
2022/01/28 11:47:53;;;;;;;12.90;2.20;;;15.50;47.50;14.50;102900.00;;;;5063299;28;20056;-70
2022/01/28 11:50:39;;;;;;;10.02;1.80;;;15.60;47.70;14.50;102907.00;;;;5062463;28;20086;-70
2022/01/28 11:53:25;;;;;;;8.65;1.58;;;15.50;47.40;14.50;102906.00;;;;5047992;28;20053;-70
2022/01/28 11:56:11;;;;;;;7.13;1.70;;;15.60;47.60;14.50;102901.00;;;;5066293;28;20029;-70
2022/01/28 11:59:07;;;;;;;4.75;1.42;;;15.60;47.60;14.50;102902.00;;;;5050506;28;20044;-70
2022/01/28 12:01:53;;;;;;;6.35;2.08;;;15.50;47.50;14.50;102898.00;;;;5049889;28;20508;-70
2022/01/28 12:04:43;;;;;;;6.03;1.20;;;15.60;47.60;14.50;102882.00;;;;5067216;28;20049;-70
2022/01/28 12:07:30;;;;;;;8.50;2.00;;;15.60;47.50;14.60;102882.00;;;;5046382;28;20097;-70
2022/01/28 12:10:16;;;;;;;13.40;2.40;;;15.60;47.50;14.60;102880.00;;;;5038041;28;20040;-70
2022/01/28 12:13:05;;;;;;;7.90;1.92;;;15.60;47.50;14.60;102871.00;;;;5039472;28;20048;-70
2022/01/28 12:16:02;;;;;;;9.93;2.15;;;15.60;47.50;14.60;102875.00;;;;5047952;28;20050;-70
2022/01/28 12:18:55;;;;;;;8.13;1.70;;;15.60;47.50;14.60;102877.00;;;;5062463;28;20098;-70
2022/01/28 12:22:01;;;;;;;5.40;1.63;;;15.60;47.50;14.60;102865.00;;;;5049385;28;20087;-70
2022/01/28 12:24:48;;;;;;;8.77;2.22;;;15.60;47.40;14.60;102870.00;;;;5054896;28;20097;-70
2022/01/28 12:27:34;;;;;;;8.02;1.90;;;15.60;47.50;14.60;102880.00;;;;5052304;28;20397;-70
2022/01/28 12:30:35;;;;;;;8.05;1.92;;;15.60;47.50;14.60;102884.00;;;;5049928;28;20091;-70
2022/01/28 12:33:23;;;;;;;5.70;1.50;;;15.60;47.40;14.60;102885.00;;;;5047237;28;20041;-70
2022/01/28 12:36:18;;;;;;;6.28;1.63;;;15.60;47.40;14.60;102884.00;;;;5052847;28;20097;-70
2022/01/28 12:39:20;;;;;;;8.77;2.28;;;15.60;47.40;14.60;102876.00;;;;5050454;28;20489;-72
2022/01/28 12:45:07;;;;;;;7.93;1.80;;;15.60;46.90;14.60;102860.00;;;;5054101;28;20086;-71
2022/01/28 12:47:53;;;;;;;7.70;1.58;;;15.60;47.30;14.60;102865.00;;;;5060375;28;20041;-72
2022/01/28 12:50:48;;;;;;;9.50;2.28;;;15.60;47.30;14.60;102854.00;;;;5062519;28;20560;-72
2022/01/28 12:53:45;;;;;;;5.90;1.55;;;15.60;47.40;14.60;102859.00;;;;5053364;28;20047;-72
2022/01/28 12:56:36;;;;;;;6.55;1.88;;;15.60;47.30;14.60;102845.00;;;;5060481;28;20037;-72
2022/01/28 12:59:22;;;;;;;7.05;1.98;;;15.60;47.30;14.60;102841.00;;;;5057471;28;20074;-70
2022/01/28 13:02:08;;;;;;;9.38;2.17;;;15.70;47.30;14.60;102841.00;;;;5040709;28;20315;-70
2022/01/28 13:10:54;;;;;;;8.05;2.30;;;15.60;47.30;14.60;102834.00;;;;5065843;28;20566;-75
2022/01/28 13:14:06;;;;;;;8.70;1.65;;;15.60;47.30;14.60;102851.00;;;;5054196;28;20047;-72
2022/01/28 13:16:52;;;;;;;6.22;1.80;;;15.70;47.40;14.60;102840.00;;;;5063373;28;20077;-71
2022/01/28 13:19:38;;;;;;;5.65;1.52;;;15.70;47.10;14.60;102837.00;;;;5062500;28;20484;-71
2022/01/28 13:22:29;;;;;;;8.05;1.92;;;15.70;46.90;14.70;102834.00;;;;5055155;28;20227;-72
2022/01/28 13:25:22;;;;;;;7.43;1.50;;;15.70;46.80;14.70;102832.00;;;;5038908;28;20474;-72
2022/01/28 13:28:12;;;;;;;7.95;2.22;;;15.70;46.60;14.70;102837.00;;;;5045469;28;20037;-72
2022/01/28 13:30:58;;;;;;;7.40;1.48;;;15.70;46.40;14.70;102829.00;;;;5053284;28;20044;-72
2022/01/28 13:33:46;;;;;;;10.23;2.65;;;15.70;46.70;14.70;102827.00;;;;5061070;28;20057;-72
2022/01/28 13:36:50;;;;;;;7.95;1.65;;;15.70;46.80;14.70;102828.00;;;;5048897;28;20037;-71
2022/01/28 13:39:43;;;;;;;7.57;1.50;;;15.70;46.90;14.70;102829.00;;;;5049793;28;20397;-75
2022/01/28 13:42:29;;;;;;;6.55;1.55;;;15.70;46.90;14.70;102827.00;;;;5050564;28;20075;-72
2022/01/28 13:45:17;;;;;;;7.80;1.73;;;15.70;46.90;14.70;102828.00;;;;5052572;28;20061;-73
2022/01/28 13:48:12;;;;;;;7.50;1.80;;;15.70;46.90;14.70;102834.00;;;;5046567;28;20139;-72
2022/01/28 13:51:16;;;;;;;10.05;2.20;;;15.70;46.20;14.70;102830.00;;;;5063749;28;20044;-71
2022/01/28 13:56:48;;;;;;;5.03;1.40;;;15.70;46.70;14.70;102821.00;;;;5055891;28;20661;-72